Time;durP1;ratioP1;P1;durP2;ratioP2;P2;SDS_P1;SDS_P2;PMS_P1;PMS_P2;Temp;Humidity;BMP_temperature;BMP_pressure;BME280_temperature;BME280_humidity;BME280_pressure;Samples;Min_cycle;Max_cycle;Signal;HPM_P1;HPM_P2
2023/10/24 00:01:30;;;;;;;2.40;2.20;;;10.00;99.90;;;;;;5075200;28;20166;-64
2023/10/24 00:03:56;;;;;;;2.78;2.47;;;10.00;99.90;;;;;;5073717;28;20074;-64
2023/10/24 00:06:21;;;;;;;2.80;2.58;;;10.00;99.90;;;;;;5074883;28;20036;-64
2023/10/24 00:08:47;;;;;;;2.40;2.20;;;10.00;99.90;;;;;;5073549;28;20129;-64
2023/10/24 00:11:12;;;;;;;3.25;2.70;;;10.00;99.90;;;;;;5074781;28;20041;-64
2023/10/24 00:13:38;;;;;;;3.00;2.70;;;10.00;99.90;;;;;;5074897;28;20036;-64
2023/10/24 00:16:04;;;;;;;2.53;2.33;;;10.00;99.90;;;;;;5074897;28;20045;-64
2023/10/24 00:18:29;;;;;;;2.95;2.47;;;10.10;99.90;;;;;;5073278;28;20141;-64
2023/10/24 00:20:55;;;;;;;2.88;2.63;;;10.00;99.90;;;;;;5074766;28;20396;-65
2023/10/24 00:23:21;;;;;;;2.53;2.33;;;10.10;99.90;;;;;;5074698;28;20043;-64
2023/10/24 00:25:46;;;;;;;2.83;2.63;;;10.00;99.90;;;;;;5074674;28;20037;-64
2023/10/24 00:28:12;;;;;;;3.40;2.78;;;10.00;99.90;;;;;;5074620;28;20033;-64
2023/10/24 00:30:39;;;;;;;3.17;2.88;;;10.00;99.90;;;;;;5074581;28;20089;-64
2023/10/24 00:33:04;;;;;;;4.88;2.65;;;10.00;99.90;;;;;;5073060;28;20041;-64
2023/10/24 00:35:30;;;;;;;2.58;2.38;;;10.00;99.90;;;;;;5074590;28;20487;-64
2023/10/24 00:37:56;;;;;;;2.75;2.20;;;10.30;99.90;;;;;;5074441;28;20084;-64
2023/10/24 00:40:21;;;;;;;2.58;2.17;;;10.00;99.90;;;;;;5074430;28;20476;-67
2023/10/24 00:42:50;;;;;;;3.58;2.95;;;10.10;99.90;;;;;;5073923;28;20052;-64
2023/10/24 00:45:15;;;;;;;2.83;2.63;;;10.00;99.90;;;;;;5074244;28;20040;-64
2023/10/24 00:47:41;;;;;;;2.67;2.47;;;10.10;99.90;;;;;;5073999;28;20098;-64
2023/10/24 00:50:08;;;;;;;2.53;2.33;;;10.10;99.90;;;;;;5072717;28;20469;-64
2023/10/24 00:52:34;;;;;;;2.95;2.72;;;10.00;99.90;;;;;;5074084;28;20040;-65
2023/10/24 00:55:01;;;;;;;2.75;2.55;;;10.00;99.90;;;;;;5074011;28;20385;-65
2023/10/24 00:57:27;;;;;;;2.80;2.60;;;10.10;99.90;;;;;;5072819;28;20514;-64
2023/10/24 00:59:54;;;;;;;2.88;2.55;;;10.00;99.90;;;;;;5074043;28;20044;-65
2023/10/24 01:02:20;;;;;;;2.85;2.55;;;10.00;99.90;;;;;;5073989;28;20070;-65
2023/10/24 01:04:47;;;;;;;2.38;2.17;;;10.00;99.90;;;;;;5072573;28;20040;-65
2023/10/24 01:07:12;;;;;;;4.50;2.83;;;10.00;99.90;;;;;;5073528;28;20037;-64
2023/10/24 01:09:38;;;;;;;3.35;2.80;;;10.00;99.90;;;;;;5073766;28;20040;-65
2023/10/24 01:12:04;;;;;;;2.30;2.10;;;10.00;99.90;;;;;;5073481;28;20041;-65
2023/10/24 01:14:29;;;;;;;2.40;2.20;;;10.00;99.90;;;;;;5073836;28;20082;-65
2023/10/24 01:16:55;;;;;;;3.03;2.63;;;10.00;99.90;;;;;;5073691;28;20032;-65
2023/10/24 01:19:21;;;;;;;2.55;2.35;;;10.00;99.90;;;;;;5073355;28;20048;-65
2023/10/24 01:21:47;;;;;;;2.70;2.50;;;10.00;99.90;;;;;;5073597;28;20052;-65
2023/10/24 01:24:14;;;;;;;2.90;2.67;;;10.50;99.90;;;;;;5073545;28;20044;-67
2023/10/24 01:26:41;;;;;;;2.30;2.10;;;10.10;99.90;;;;;;5073522;28;20036;-67
2023/10/24 01:29:08;;;;;;;3.15;2.85;;;10.00;99.90;;;;;;5073538;28;20115;-65
2023/10/24 01:31:34;;;;;;;2.60;2.40;;;10.10;99.90;;;;;;5073506;28;20425;-65
2023/10/24 01:33:59;;;;;;;2.20;2.00;;;10.00;99.90;;;;;;5073777;28;20079;-65
2023/10/24 01:36:25;;;;;;;2.80;2.60;;;10.00;99.90;;;;;;5073334;28;20047;-64
2023/10/24 01:38:50;;;;;;;2.50;2.30;;;10.10;99.90;;;;;;5073429;28;20045;-65
2023/10/24 01:41:16;;;;;;;3.00;2.78;;;10.80;99.90;;;;;;5072992;28;20048;-64
2023/10/24 01:43:42;;;;;;;2.35;2.15;;;10.10;99.90;;;;;;5073283;28;20480;-64
2023/10/24 01:46:08;;;;;;;2.78;2.53;;;10.10;99.90;;;;;;5073453;28;20063;-64
2023/10/24 01:48:33;;;;;;;2.50;2.30;;;10.10;99.90;;;;;;5072894;28;20038;-64
2023/10/24 01:50:59;;;;;;;2.60;2.40;;;10.10;99.90;;;;;;5072982;28;20115;-65
2023/10/24 01:53:25;;;;;;;2.38;2.17;;;10.10;99.90;;;;;;5073178;28;20094;-64
2023/10/24 01:55:50;;;;;;;2.90;2.63;;;10.10;99.90;;;;;;5072892;28;20037;-64
2023/10/24 01:58:16;;;;;;;2.40;2.20;;;10.10;99.90;;;;;;5073122;28;20040;-65
2023/10/24 02:00:41;;;;;;;2.67;2.40;;;10.20;99.90;;;;;;5073002;28;20036;-65
2023/10/24 02:03:07;;;;;;;2.08;1.90;;;10.20;99.90;;;;;;5072768;28;20039;-64
2023/10/24 02:05:32;;;;;;;2.20;2.00;;;10.20;99.90;;;;;;5072997;28;20048;-65
2023/10/24 02:07:58;;;;;;;2.60;2.40;;;10.20;99.90;;;;;;5072331;28;20048;-64
2023/10/24 02:10:24;;;;;;;2.55;2.35;;;10.20;99.90;;;;;;5073095;28;20036;-64
2023/10/24 02:12:49;;;;;;;2.88;2.58;;;10.30;99.90;;;;;;5073050;28;20036;-64
2023/10/24 02:15:15;;;;;;;2.42;2.22;;;10.30;99.90;;;;;;5071680;28;20408;-64
2023/10/24 02:17:43;;;;;;;2.53;2.33;;;10.30;99.90;;;;;;5071711;28;20048;-65
2023/10/24 02:20:09;;;;;;;2.40;2.20;;;10.30;99.90;;;;;;5071418;28;20049;-64
2023/10/24 02:22:35;;;;;;;2.45;2.10;;;10.30;99.90;;;;;;5072899;28;20041;-64
2023/10/24 02:25:01;;;;;;;2.38;2.17;;;10.30;99.90;;;;;;5072943;28;20101;-66
2023/10/24 02:27:27;;;;;;;2.42;2.22;;;10.60;99.90;;;;;;5072872;28;20492;-66
2023/10/24 02:29:53;;;;;;;2.70;2.50;;;10.30;99.90;;;;;;5072857;28;20486;-66
2023/10/24 02:32:19;;;;;;;2.63;2.42;;;10.40;99.90;;;;;;5072794;28;20072;-66
2023/10/24 02:34:49;;;;;;;2.55;2.35;;;10.40;99.90;;;;;;5072917;28;20044;-65
2023/10/24 02:37:15;;;;;;;2.40;2.20;;;10.40;99.90;;;;;;5071589;28;20117;-64
2023/10/24 02:39:41;;;;;;;2.50;2.30;;;10.40;99.90;;;;;;5072459;28;20094;-64
2023/10/24 02:42:07;;;;;;;2.15;1.95;;;10.50;99.90;;;;;;5072443;28;20052;-65
2023/10/24 02:44:33;;;;;;;2.40;2.20;;;10.60;99.90;;;;;;5072324;28;20123;-65
2023/10/24 02:46:58;;;;;;;2.60;2.40;;;10.50;99.90;;;;;;5071439;28;20032;-65
2023/10/24 02:49:24;;;;;;;2.80;2.60;;;10.50;99.90;;;;;;5072646;28;20028;-65
2023/10/24 02:51:49;;;;;;;2.53;2.20;;;10.50;99.90;;;;;;5072660;28;20082;-65
2023/10/24 02:54:15;;;;;;;2.60;2.40;;;10.50;99.90;;;;;;5072630;28;20040;-65
2023/10/24 02:56:41;;;;;;;2.22;2.03;;;10.50;99.90;;;;;;5072619;28;20041;-65
2023/10/24 02:59:06;;;;;;;2.50;2.30;;;10.50;99.90;;;;;;5072579;28;20071;-65
2023/10/24 03:01:32;;;;;;;2.33;2.13;;;10.70;99.90;;;;;;5072524;28;20039;-65
2023/10/24 03:03:58;;;;;;;2.95;2.65;;;10.50;99.90;;;;;;5072209;28;20046;-65
2023/10/24 03:06:23;;;;;;;2.50;2.30;;;10.50;99.90;;;;;;5072563;28;20041;-65
2023/10/24 03:08:49;;;;;;;2.40;2.10;;;10.50;99.90;;;;;;5072140;28;20068;-65
2023/10/24 03:11:22;;;;;;;2.28;2.08;;;10.50;99.90;;;;;;5072465;28;20115;-65
2023/10/24 03:13:48;;;;;;;2.33;2.13;;;10.60;99.90;;;;;;5072143;28;20123;-65
2023/10/24 03:16:13;;;;;;;2.70;2.50;;;11.00;99.90;;;;;;5072139;28;20040;-65
2023/10/24 03:18:39;;;;;;;3.47;2.90;;;10.60;99.90;;;;;;5072398;28;20041;-65
2023/10/24 03:21:05;;;;;;;2.45;2.22;;;10.60;99.90;;;;;;5075926;28;20036;-65
2023/10/24 03:23:30;;;;;;;2.38;2.17;;;10.60;99.90;;;;;;5075807;28;20040;-65
2023/10/24 03:25:56;;;;;;;2.53;2.33;;;10.60;99.90;;;;;;5075862;28;20041;-65
2023/10/24 03:28:22;;;;;;;2.85;2.50;;;10.60;99.90;;;;;;5075821;28;20071;-65
2023/10/24 03:30:50;;;;;;;2.38;2.15;;;11.10;99.90;;;;;;5075747;28;20041;-65
2023/10/24 03:33:16;;;;;;;2.35;2.15;;;10.60;99.90;;;;;;5075710;28;20032;-65
2023/10/24 03:35:41;;;;;;;2.42;2.22;;;10.70;99.90;;;;;;5074140;28;20049;-65
2023/10/24 03:38:07;;;;;;;3.20;2.38;;;10.70;99.90;;;;;;5075658;28;20544;-65
2023/10/24 03:40:32;;;;;;;2.30;2.10;;;10.70;99.90;;;;;;5075589;28;20373;-65
2023/10/24 03:42:58;;;;;;;2.38;2.00;;;10.70;99.90;;;;;;5073911;28;20458;-65
2023/10/24 03:45:24;;;;;;;4.85;2.50;;;10.70;99.90;;;;;;5075421;28;20044;-64
2023/10/24 03:47:50;;;;;;;2.85;2.60;;;10.70;99.90;;;;;;5075362;28;20404;-65
2023/10/24 03:50:16;;;;;;;2.65;2.30;;;10.70;99.90;;;;;;5075457;28;20112;-64
2023/10/24 03:52:42;;;;;;;2.88;2.63;;;10.70;99.90;;;;;;5075339;28;20141;-65
2023/10/24 03:55:11;;;;;;;2.80;2.30;;;10.80;99.90;;;;;;5075102;28;20115;-65
2023/10/24 03:57:38;;;;;;;2.30;2.10;;;10.80;99.90;;;;;;5074863;28;20086;-65
2023/10/24 04:00:08;;;;;;;3.03;2.63;;;10.80;99.90;;;;;;5073921;28;20052;-65
2023/10/24 04:02:34;;;;;;;2.42;2.22;;;10.70;99.90;;;;;;5075204;28;20044;-64
2023/10/24 04:05:00;;;;;;;2.47;2.15;;;10.80;99.90;;;;;;5074805;28;20050;-65
2023/10/24 04:07:25;;;;;;;3.03;2.67;;;11.50;99.90;;;;;;5075114;28;20037;-65
2023/10/24 04:09:51;;;;;;;2.30;2.10;;;11.00;99.90;;;;;;5074765;28;20431;-65
2023/10/24 04:12:17;;;;;;;3.85;2.75;;;10.80;99.90;;;;;;5073457;28;20070;-65
2023/10/24 04:14:42;;;;;;;3.17;2.88;;;10.80;99.90;;;;;;5074650;28;20082;-65
2023/10/24 04:17:08;;;;;;;2.40;2.20;;;10.90;99.90;;;;;;5074944;28;20094;-65
2023/10/24 04:19:34;;;;;;;2.67;2.20;;;10.90;99.90;;;;;;5075145;28;20064;-65
2023/10/24 04:22:00;;;;;;;2.50;2.30;;;11.30;99.90;;;;;;5074561;28;20041;-65
2023/10/24 04:24:25;;;;;;;2.70;2.50;;;10.90;99.90;;;;;;5074613;28;20041;-64
2023/10/24 04:26:51;;;;;;;2.88;2.58;;;10.90;99.90;;;;;;5074437;28;20033;-65
2023/10/24 04:29:16;;;;;;;2.78;2.47;;;10.90;99.90;;;;;;5074643;28;20119;-65
2023/10/24 04:31:42;;;;;;;2.55;2.28;;;11.10;99.90;;;;;;5074221;28;20048;-65
2023/10/24 04:34:07;;;;;;;2.58;2.38;;;10.90;99.90;;;;;;5074616;28;20441;-65
2023/10/24 04:36:33;;;;;;;3.08;2.78;;;10.90;99.90;;;;;;5074246;28;20041;-65
2023/10/24 04:38:59;;;;;;;3.72;2.40;;;10.90;99.90;;;;;;5074510;28;20119;-65
2023/10/24 04:41:25;;;;;;;2.72;2.33;;;11.00;99.90;;;;;;5074110;28;20063;-65
2023/10/24 04:43:51;;;;;;;2.38;2.13;;;11.20;99.90;;;;;;5072742;28;20315;-65
2023/10/24 04:46:16;;;;;;;5.38;3.17;;;11.00;99.90;;;;;;5074293;28;20089;-65
2023/10/24 04:48:42;;;;;;;3.45;2.03;;;11.00;99.90;;;;;;5074203;28;20067;-65
2023/10/24 04:51:11;;;;;;;2.42;2.22;;;11.00;99.90;;;;;;5074184;28;20033;-65
2023/10/24 04:53:37;;;;;;;2.70;2.50;;;11.10;99.90;;;;;;5074153;28;20455;-65
2023/10/24 04:56:03;;;;;;;2.80;2.50;;;11.00;99.90;;;;;;5074085;28;20125;-65
2023/10/24 04:58:30;;;;;;;3.30;2.40;;;11.00;99.90;;;;;;5074155;28;20123;-65
2023/10/24 05:00:56;;;;;;;2.50;2.30;;;11.10;99.90;;;;;;5073915;28;20040;-65
2023/10/24 05:03:21;;;;;;;4.82;2.47;;;11.10;99.90;;;;;;5073889;28;20032;-65
2023/10/24 05:05:47;;;;;;;2.45;2.20;;;11.10;99.90;;;;;;5073990;28;20433;-65
2023/10/24 05:08:13;;;;;;;2.38;2.08;;;11.10;99.90;;;;;;5073569;28;20047;-65
2023/10/24 05:10:39;;;;;;;3.22;2.53;;;11.70;99.90;;;;;;5073539;28;20044;-65
2023/10/24 05:13:04;;;;;;;2.65;2.45;;;11.70;99.90;;;;;;5073793;28;20078;-65
2023/10/24 05:15:30;;;;;;;2.00;1.80;;;11.10;99.90;;;;;;5073743;28;20075;-65
2023/10/24 05:17:56;;;;;;;3.42;2.30;;;11.10;99.90;;;;;;5073764;28;20044;-66
2023/10/24 05:20:21;;;;;;;1.92;1.77;;;11.10;99.90;;;;;;5073722;28;20029;-66
2023/10/24 05:22:47;;;;;;;2.35;2.05;;;11.50;99.90;;;;;;5073606;28;20044;-67
2023/10/24 05:25:12;;;;;;;2.33;2.13;;;11.10;99.90;;;;;;5088945;28;20051;-67
2023/10/24 05:27:38;;;;;;;2.22;2.03;;;11.10;99.90;;;;;;5072256;28;20480;-67
2023/10/24 05:30:05;;;;;;;2.95;2.47;;;11.00;99.90;;;;;;5073456;28;20032;-67
2023/10/24 05:32:30;;;;;;;1.92;1.70;;;11.00;99.90;;;;;;5073429;28;20388;-67
2023/10/24 05:34:56;;;;;;;2.28;2.05;;;11.00;99.90;;;;;;5073107;28;20044;-67
2023/10/24 05:37:21;;;;;;;1.92;1.73;;;11.00;99.90;;;;;;5073463;28;20028;-67
2023/10/24 05:39:47;;;;;;;2.03;1.83;;;11.00;99.90;;;;;;5073266;28;20041;-67
2023/10/24 05:42:13;;;;;;;1.70;1.60;;;10.90;99.90;;;;;;5072245;28;20045;-66
2023/10/24 05:44:38;;;;;;;2.08;1.55;;;10.90;99.90;;;;;;5072942;28;20450;-66
2023/10/24 05:47:04;;;;;;;1.83;1.73;;;10.90;99.90;;;;;;5073284;28;20048;-67
2023/10/24 05:49:30;;;;;;;1.73;1.63;;;10.90;99.90;;;;;;5072963;28;20072;-68
2023/10/24 05:51:55;;;;;;;1.98;1.75;;;10.90;99.90;;;;;;5073122;28;20037;-68
2023/10/24 05:54:21;;;;;;;1.88;1.77;;;10.90;99.90;;;;;;5073215;28;20059;-67
2023/10/24 05:56:46;;;;;;;1.75;1.50;;;10.90;99.90;;;;;;5072825;28;20079;-67
2023/10/24 05:59:12;;;;;;;3.08;1.60;;;10.80;99.90;;;;;;5073089;28;20033;-67
2023/10/24 06:01:38;;;;;;;1.88;1.77;;;10.80;99.90;;;;;;5072999;28;20473;-68
2023/10/24 06:04:03;;;;;;;1.98;1.58;;;10.80;99.90;;;;;;5072788;28;20045;-67
2023/10/24 06:06:29;;;;;;;1.52;1.42;;;10.80;99.90;;;;;;5073016;28;20036;-67
2023/10/24 06:08:54;;;;;;;2.53;1.80;;;10.80;99.90;;;;;;5073094;28;20166;-67
2023/10/24 06:11:20;;;;;;;2.03;1.50;;;10.80;99.90;;;;;;5073054;28;20416;-67
2023/10/24 06:13:46;;;;;;;2.40;2.00;;;10.80;99.90;;;;;;5072971;28;20032;-67
2023/10/24 06:16:13;;;;;;;4.20;1.50;;;10.80;99.90;;;;;;5071485;28;20044;-67
2023/10/24 06:18:39;;;;;;;1.70;1.60;;;10.80;99.90;;;;;;5072913;28;20068;-67
2023/10/24 06:21:06;;;;;;;1.92;1.77;;;10.80;99.90;;;;;;5072887;28;20114;-67
2023/10/24 06:23:32;;;;;;;2.05;1.58;;;10.80;99.90;;;;;;5072815;28;20047;-67
2023/10/24 06:25:58;;;;;;;1.63;1.40;;;10.80;99.90;;;;;;5072537;28;20036;-68
2023/10/24 06:28:24;;;;;;;1.65;1.55;;;11.50;99.90;;;;;;5072881;28;20132;-66
2023/10/24 06:30:58;;;;;;;1.55;1.45;;;10.80;99.90;;;;;;5072587;28;20036;-66
2023/10/24 06:33:25;;;;;;;1.73;1.63;;;10.90;99.90;;;;;;5072599;28;20086;-66
2023/10/24 06:35:51;;;;;;;1.50;1.40;;;10.90;99.90;;;;;;5072730;28;20041;-66
2023/10/24 06:38:17;;;;;;;1.48;1.38;;;10.90;99.90;;;;;;5072770;28;20032;-66
2023/10/24 06:40:46;;;;;;;1.50;1.40;;;10.90;99.90;;;;;;5072566;28;20082;-67
2023/10/24 06:43:12;;;;;;;1.73;1.48;;;10.80;99.90;;;;;;5072757;28;20044;-66
2023/10/24 06:45:39;;;;;;;1.45;1.35;;;10.90;99.90;;;;;;5072614;28;20087;-66
2023/10/24 06:48:06;;;;;;;1.50;1.40;;;10.90;99.90;;;;;;5071228;28;20043;-66
2023/10/24 06:50:32;;;;;;;1.88;1.40;;;10.90;99.90;;;;;;5072606;28;20044;-66
2023/10/24 06:52:58;;;;;;;2.17;1.52;;;10.90;99.90;;;;;;5073235;28;20054;-66
2023/10/24 06:55:24;;;;;;;1.42;1.30;;;10.90;99.90;;;;;;5076452;28;20044;-66
2023/10/24 06:57:50;;;;;;;1.67;1.55;;;10.90;99.90;;;;;;5074894;28;20500;-66
2023/10/24 07:00:16;;;;;;;1.63;1.52;;;10.90;99.90;;;;;;5076057;28;20080;-66
2023/10/24 07:02:41;;;;;;;1.80;1.70;;;10.90;99.90;;;;;;5076348;28;20400;-66
2023/10/24 07:05:07;;;;;;;1.45;1.35;;;10.90;99.90;;;;;;5075863;28;20044;-66
2023/10/24 07:07:33;;;;;;;1.77;1.67;;;10.90;99.90;;;;;;5076234;28;20032;-66
2023/10/24 07:09:59;;;;;;;1.45;1.35;;;11.00;99.90;;;;;;5076191;28;20094;-66
2023/10/24 07:12:24;;;;;;;1.83;1.60;;;11.00;99.90;;;;;;5075809;28;20098;-67
2023/10/24 07:14:53;;;;;;;1.30;1.20;;;11.00;99.90;;;;;;5076046;28;20040;-66
2023/10/24 07:17:20;;;;;;;1.50;1.40;;;11.00;99.90;;;;;;5076148;28;20500;-65
2023/10/24 07:19:45;;;;;;;1.42;1.33;;;11.10;99.90;;;;;;5075712;28;20081;-65
2023/10/24 07:22:11;;;;;;;1.88;1.48;;;11.00;99.90;;;;;;5075694;28;20037;-65
2023/10/24 07:24:37;;;;;;;1.60;1.45;;;11.10;99.90;;;;;;5075779;28;20075;-65
2023/10/24 07:27:03;;;;;;;1.70;1.60;;;11.10;99.90;;;;;;5075584;28;20052;-65
2023/10/24 07:29:29;;;;;;;1.38;1.27;;;11.10;99.90;;;;;;5075913;28;20051;-65
2023/10/24 07:31:56;;;;;;;1.25;1.15;;;11.10;99.90;;;;;;5075811;28;20150;-65
2023/10/24 07:34:22;;;;;;;1.45;1.35;;;11.20;99.90;;;;;;5075440;28;20047;-65
2023/10/24 07:36:48;;;;;;;1.55;1.30;;;11.10;99.90;;;;;;5075311;28;20125;-65
2023/10/24 07:39:14;;;;;;;1.50;1.40;;;11.20;99.90;;;;;;5075808;28;20037;-66
2023/10/24 07:41:40;;;;;;;1.45;1.33;;;11.20;99.90;;;;;;5075326;28;20143;-66
2023/10/24 07:44:06;;;;;;;1.40;1.30;;;11.20;99.90;;;;;;5075509;28;20048;-67
2023/10/24 07:46:32;;;;;;;2.10;1.77;;;11.30;99.90;;;;;;5075187;28;20043;-67
2023/10/24 07:48:58;;;;;;;1.65;1.55;;;11.20;99.90;;;;;;5075540;28;20119;-66
2023/10/24 07:51:27;;;;;;;1.65;1.55;;;11.20;99.90;;;;;;5075434;28;20144;-70
2023/10/24 07:53:53;;;;;;;1.42;1.33;;;11.30;99.90;;;;;;5057083;28;20036;-71
2023/10/24 07:56:19;;;;;;;1.58;1.48;;;11.20;99.90;;;;;;5075301;28;20046;-67
2023/10/24 07:58:45;;;;;;;1.55;1.35;;;11.20;99.90;;;;;;5075226;28;20483;-68
2023/10/24 08:01:11;;;;;;;1.40;1.30;;;11.30;99.90;;;;;;5074971;28;20044;-67
2023/10/24 08:03:36;;;;;;;1.48;1.38;;;11.90;99.90;;;;;;5075049;28;20043;-67
2023/10/24 08:06:03;;;;;;;1.50;1.40;;;11.30;99.90;;;;;;5074265;28;20045;-67
2023/10/24 08:08:29;;;;;;;2.10;1.90;;;11.30;99.90;;;;;;5075073;28;20094;-67
2023/10/24 08:10:55;;;;;;;1.52;1.42;;;11.40;99.90;;;;;;5074740;28;20040;-67
2023/10/24 08:13:21;;;;;;;1.40;1.30;;;11.30;99.90;;;;;;5075025;28;20029;-67
2023/10/24 08:15:50;;;;;;;1.40;1.30;;;11.30;99.90;;;;;;5074564;28;20048;-67
2023/10/24 08:18:15;;;;;;;1.50;1.40;;;11.40;99.90;;;;;;5074945;28;20082;-67
2023/10/24 08:20:41;;;;;;;1.52;1.40;;;11.40;99.90;;;;;;5073333;28;20048;-67
2023/10/24 08:23:07;;;;;;;1.20;1.10;;;11.40;99.90;;;;;;5074694;28;20040;-67
2023/10/24 08:25:32;;;;;;;1.90;1.80;;;11.40;99.90;;;;;;5074483;28;20075;-67
2023/10/24 08:27:58;;;;;;;1.58;1.48;;;11.40;99.90;;;;;;5074707;28;20040;-66
2023/10/24 08:30:23;;;;;;;1.70;1.30;;;11.40;99.90;;;;;;5074737;28;20080;-65
2023/10/24 08:32:49;;;;;;;1.65;1.55;;;11.40;99.90;;;;;;5074817;28;20044;-66
2023/10/24 08:35:14;;;;;;;1.50;1.40;;;11.40;99.90;;;;;;5074495;28;20047;-66
2023/10/24 08:37:40;;;;;;;1.70;1.60;;;11.50;99.90;;;;;;5074463;28;20059;-66
2023/10/24 08:40:07;;;;;;;1.80;1.60;;;11.40;99.90;;;;;;5074320;28;20040;-68
2023/10/24 08:42:33;;;;;;;1.52;1.42;;;11.50;99.90;;;;;;5089355;28;20398;-67
2023/10/24 08:44:59;;;;;;;1.75;1.60;;;11.40;99.90;;;;;;5073872;28;20067;-66
2023/10/24 08:47:27;;;;;;;2.05;1.85;;;11.40;99.90;;;;;;5074133;28;20040;-66
2023/10/24 08:49:55;;;;;;;1.83;1.73;;;11.40;99.90;;;;;;5074293;28;20392;-67
2023/10/24 08:52:21;;;;;;;1.90;1.80;;;11.40;99.90;;;;;;5072595;28;20056;-67
2023/10/24 08:54:46;;;;;;;1.50;1.40;;;11.50;99.90;;;;;;5073987;28;20036;-67
2023/10/24 08:57:13;;;;;;;2.42;1.70;;;11.50;99.90;;;;;;5074076;28;20040;-67
2023/10/24 08:59:40;;;;;;;2.20;1.75;;;11.60;99.90;;;;;;5074014;28;20036;-67
2023/10/24 09:02:10;;;;;;;1.80;1.70;;;11.60;99.90;;;;;;5072524;28;20121;-67
2023/10/24 09:04:38;;;;;;;2.03;1.88;;;11.70;99.90;;;;;;5073416;28;20048;-67
2023/10/24 09:07:04;;;;;;;1.92;1.77;;;11.60;99.90;;;;;;5073584;28;20137;-67
2023/10/24 09:09:30;;;;;;;1.80;1.70;;;11.60;99.90;;;;;;5073781;28;20044;-67
2023/10/24 09:11:58;;;;;;;1.70;1.60;;;11.60;99.90;;;;;;5073702;28;20041;-67
2023/10/24 09:14:25;;;;;;;1.50;1.40;;;11.60;99.90;;;;;;5073417;28;20446;-67
2023/10/24 09:16:54;;;;;;;1.70;1.60;;;12.30;99.90;;;;;;5073568;28;20033;-66
2023/10/24 09:19:21;;;;;;;1.75;1.63;;;11.60;99.90;;;;;;5073591;28;20036;-67
2023/10/24 09:21:49;;;;;;;1.38;1.27;;;11.60;99.90;;;;;;5073552;28;20041;-67
2023/10/24 09:24:15;;;;;;;1.52;1.42;;;11.60;99.90;;;;;;5073415;28;20048;-67
2023/10/24 09:26:48;;;;;;;2.05;1.60;;;11.60;99.90;;;;;;5073151;28;20037;-67
2023/10/24 09:29:16;;;;;;;1.95;1.73;;;11.60;99.90;;;;;;5071845;28;20123;-67
2023/10/24 09:31:41;;;;;;;1.70;1.60;;;11.50;99.90;;;;;;5073356;28;20396;-67
2023/10/24 09:34:07;;;;;;;1.63;1.52;;;11.50;99.90;;;;;;5073009;28;20044;-70
2023/10/24 09:36:34;;;;;;;1.77;1.60;;;11.50;99.90;;;;;;5073205;28;20036;-67
2023/10/24 09:38:59;;;;;;;1.70;1.60;;;11.50;99.90;;;;;;5073269;28;20080;-66
2023/10/24 09:41:26;;;;;;;1.35;1.25;;;11.60;99.90;;;;;;5071901;28;20063;-66
2023/10/24 09:43:55;;;;;;;1.83;1.73;;;11.60;99.90;;;;;;5073314;28;20408;-66
2023/10/24 09:46:37;;;;;;;1.45;1.35;;;11.60;99.90;;;;;;5050289;28;20561;-65
2023/10/24 09:49:07;;;;;;;1.60;1.50;;;11.70;99.90;;;;;;5073284;28;20404;-66
2023/10/24 09:51:37;;;;;;;1.45;1.35;;;12.10;99.90;;;;;;5073251;28;20035;-66
2023/10/24 09:54:04;;;;;;;1.52;1.42;;;11.70;99.90;;;;;;5072110;28;20076;-66
2023/10/24 09:56:31;;;;;;;1.40;1.30;;;11.60;99.90;;;;;;5072849;28;20079;-66
2023/10/24 09:58:58;;;;;;;1.40;1.30;;;11.60;99.90;;;;;;5073183;28;20041;-66
2023/10/24 10:01:28;;;;;;;1.30;1.20;;;12.10;99.90;;;;;;5073349;28;20041;-66
2023/10/24 10:03:58;;;;;;;1.10;1.00;;;11.50;99.90;;;;;;5073123;28;20384;-66
2023/10/24 10:06:27;;;;;;;1.38;1.27;;;11.60;99.90;;;;;;5073161;28;20032;-66
2023/10/24 10:08:55;;;;;;;1.27;1.17;;;11.50;99.90;;;;;;5072779;28;20462;-66
2023/10/24 10:11:22;;;;;;;1.48;1.38;;;11.60;99.90;;;;;;5073102;28;20040;-65
2023/10/24 10:13:56;;;;;;;1.30;1.20;;;11.50;99.90;;;;;;5073025;28;20047;-66
2023/10/24 10:16:40;;;;;;;1.50;1.40;;;11.60;99.90;;;;;;5071791;28;20090;-66
2023/10/24 10:19:30;;;;;;;1.27;1.17;;;11.60;99.90;;;;;;5072987;28;20044;-66
2023/10/24 10:22:04;;;;;;;1.30;1.20;;;11.60;99.90;;;;;;5071691;28;20097;-66
2023/10/24 10:24:51;;;;;;;1.13;1.02;;;11.60;99.90;;;;;;5072573;28;20051;-66
2023/10/24 10:27:39;;;;;;;1.50;1.40;;;11.60;99.90;;;;;;5072943;28;20452;-67
2023/10/24 10:30:26;;;;;;;1.25;1.15;;;11.70;99.90;;;;;;5077042;28;20459;-66
2023/10/24 10:33:06;;;;;;;1.17;1.08;;;11.80;99.90;;;;;;5076956;28;20040;-67
2023/10/24 10:35:48;;;;;;;1.30;1.20;;;11.70;99.90;;;;;;5076926;28;20581;-66
2023/10/24 10:38:24;;;;;;;1.10;1.08;;;11.70;99.90;;;;;;5075567;28;20127;-66
2023/10/24 10:40:50;;;;;;;1.45;1.20;;;11.70;99.90;;;;;;5076615;28;20458;-66
2023/10/24 10:43:30;;;;;;;1.20;1.10;;;11.80;99.90;;;;;;5076726;28;20047;-66
2023/10/24 10:46:25;;;;;;;1.27;1.17;;;11.80;99.90;;;;;;5076678;28;20037;-66
2023/10/24 10:48:52;;;;;;;1.55;1.20;;;12.50;99.90;;;;;;5074270;28;20045;-66
2023/10/24 10:51:22;;;;;;;1.33;1.23;;;11.80;99.90;;;;;;5076631;28;20508;-66
2023/10/24 10:53:54;;;;;;;1.50;1.40;;;11.90;99.90;;;;;;5074999;28;20043;-66
2023/10/24 10:56:30;;;;;;;1.25;1.15;;;11.90;99.90;;;;;;5076150;28;20123;-66
2023/10/24 10:58:58;;;;;;;1.30;1.20;;;11.90;99.90;;;;;;5076143;28;20041;-66
2023/10/24 11:01:48;;;;;;;1.50;1.40;;;12.00;99.90;;;;;;5076465;28;20094;-67
2023/10/24 11:04:14;;;;;;;1.13;1.10;;;12.10;99.90;;;;;;5076191;28;20080;-67
2023/10/24 11:06:51;;;;;;;1.65;1.13;;;12.10;99.90;;;;;;5076269;28;20365;-67
2023/10/24 11:09:20;;;;;;;1.02;1.02;;;12.20;99.90;;;;;;5076256;28;20036;-68
2023/10/24 11:11:46;;;;;;;1.17;1.08;;;12.20;99.90;;;;;;5076354;28;20044;-66
2023/10/24 11:14:21;;;;;;;1.17;1.15;;;12.10;99.90;;;;;;5076062;28;20036;-66
2023/10/24 11:16:49;;;;;;;1.38;1.27;;;12.20;99.90;;;;;;5075988;28;20373;-66
2023/10/24 11:19:22;;;;;;;1.10;1.00;;;12.10;99.90;;;;;;5075927;28;20504;-66
2023/10/24 11:21:52;;;;;;;1.30;1.20;;;12.10;99.90;;;;;;5075940;28;20041;-66
2023/10/24 11:24:22;;;;;;;0.95;0.95;;;12.10;99.90;;;;;;5075924;28;20119;-66
2023/10/24 11:26:54;;;;;;;1.37;1.20;;;12.10;99.90;;;;;;5075932;28;20051;-66
2023/10/24 11:29:20;;;;;;;1.17;1.15;;;12.10;99.90;;;;;;5075569;28;20037;-66
2023/10/24 11:31:47;;;;;;;1.38;1.27;;;12.20;99.90;;;;;;5075428;28;20062;-66
2023/10/24 11:34:13;;;;;;;1.30;1.20;;;12.20;99.90;;;;;;5075441;28;20044;-66
2023/10/24 11:36:41;;;;;;;1.50;1.40;;;12.20;99.90;;;;;;5075401;28;20378;-66
2023/10/24 11:39:07;;;;;;;1.50;1.40;;;12.50;99.90;;;;;;5075095;28;20059;-66
2023/10/24 11:41:34;;;;;;;1.45;1.35;;;12.20;99.90;;;;;;5074687;28;20048;-66
2023/10/24 11:43:59;;;;;;;0.95;0.95;;;12.20;99.90;;;;;;5074018;28;20053;-66
2023/10/24 11:46:25;;;;;;;1.52;1.42;;;12.20;99.90;;;;;;5075252;28;20045;-66
2023/10/24 11:48:51;;;;;;;1.38;1.27;;;12.20;99.90;;;;;;5075184;28;20047;-66
2023/10/24 11:51:16;;;;;;;1.38;1.27;;;12.20;99.90;;;;;;5075244;28;20492;-67
2023/10/24 11:53:43;;;;;;;1.63;1.52;;;12.70;99.90;;;;;;5075226;28;20037;-67
2023/10/24 11:56:09;;;;;;;1.42;1.33;;;12.70;99.90;;;;;;5074869;28;20036;-67
2023/10/24 11:58:35;;;;;;;1.80;1.70;;;12.30;99.90;;;;;;5075153;28;20086;-68
2023/10/24 12:01:02;;;;;;;1.60;1.50;;;12.20;99.90;;;;;;5075212;28;20032;-67
2023/10/24 12:03:41;;;;;;;1.20;1.10;;;12.30;99.90;;;;;;5075065;28;20037;-67
2023/10/24 12:06:08;;;;;;;1.48;1.30;;;12.20;99.90;;;;;;5075174;28;20071;-66
2023/10/24 12:08:35;;;;;;;1.48;1.38;;;12.30;99.90;;;;;;5075162;28;20044;-66
2023/10/24 12:11:00;;;;;;;1.50;1.40;;;12.50;99.90;;;;;;5075165;28;20047;-67
2023/10/24 12:13:26;;;;;;;1.77;1.67;;;12.60;99.90;;;;;;5074645;28;20028;-67
2023/10/24 12:15:52;;;;;;;1.73;1.60;;;13.00;99.90;;;;;;5074620;28;20055;-67
2023/10/24 12:18:18;;;;;;;1.40;1.30;;;13.70;99.90;;;;;;5074909;28;20040;-67
2023/10/24 12:20:43;;;;;;;1.80;1.67;;;13.20;99.90;;;;;;5074947;28;20040;-66
2023/10/24 12:23:09;;;;;;;1.88;1.35;;;13.30;99.90;;;;;;5074717;28;20511;-66
2023/10/24 12:25:35;;;;;;;1.45;1.20;;;13.40;99.90;;;;;;5074463;28;20032;-66
2023/10/24 12:28:01;;;;;;;1.48;1.38;;;13.40;99.90;;;;;;5074715;28;20033;-66
2023/10/24 12:30:26;;;;;;;1.70;1.60;;;13.40;99.90;;;;;;5074552;28;20064;-67
2023/10/24 12:32:52;;;;;;;1.40;1.30;;;13.60;99.90;;;;;;5074176;28;20041;-66
2023/10/24 12:35:19;;;;;;;1.55;1.40;;;13.50;99.90;;;;;;5074540;28;20040;-66
2023/10/24 12:37:45;;;;;;;1.60;1.50;;;13.20;99.90;;;;;;5074460;28;20044;-66
2023/10/24 12:40:10;;;;;;;1.33;1.23;;;13.10;99.90;;;;;;5074222;28;20452;-66
2023/10/24 12:42:36;;;;;;;1.27;1.17;;;13.00;99.90;;;;;;5073986;28;20055;-66
2023/10/24 12:45:03;;;;;;;1.63;1.52;;;13.00;99.90;;;;;;5074016;28;20469;-66
2023/10/24 12:47:28;;;;;;;1.40;1.30;;;12.90;99.90;;;;;;5074016;28;20459;-66